Time;durP1;ratioP1;P1;durP2;ratioP2;P2;SDS_P1;SDS_P2;PMS_P1;PMS_P2;Temp;Humidity;BMP_temperature;BMP_pressure;BME280_temperature;BME280_humidity;BME280_pressure;Samples;Min_cycle;Max_cycle;Signal;HPM_P1;HPM_P2
2021/12/28 00:01:03;;;;;;;;;;;;;;;5.97;42.71;99405.13;4264566;33;19956;-88
2021/12/28 00:03:31;;;;;;;;;;;;;;;5.91;43.11;99404.94;4279694;33;20390;-91
2021/12/28 00:06:00;;;;;;;;;;;;;;;5.94;43.30;99410.19;4278461;33;19992;-90
2021/12/28 00:08:27;;;;;;;;;;;;;;;6.01;42.99;99406.94;4279640;33;19992;-91
2021/12/28 00:10:56;;;;;;;;;;;;;;;6.00;43.29;99410.34;4279384;33;19996;-90
2021/12/28 00:13:23;;;;;;;;;;;;;;;6.03;43.49;99404.41;4278494;33;20004;-90
2021/12/28 00:18:38;;;;;;;;;;;;;;;6.08;42.74;99401.97;4237125;33;19977;-91
2021/12/28 00:21:05;;;;;;;;;;;;;;;5.76;44.21;99396.78;4279559;33;19981;-90
2021/12/28 00:23:38;;;;;;;;;;;;;;;5.55;44.97;99404.75;4277743;33;20044;-91
2021/12/28 00:26:06;;;;;;;;;;;;;;;5.60;45.50;99406.63;4267649;33;20445;-91
2021/12/28 00:28:33;;;;;;;;;;;;;;;5.83;44.47;99403.84;4267742;33;20044;-88
2021/12/28 00:31:04;;;;;;;;;;;;;;;5.88;43.85;99403.97;4281890;33;20028;-91
2021/12/28 00:33:31;;;;;;;;;;;;;;;6.13;43.72;99406.41;4268174;33;19984;-91
2021/12/28 00:35:58;;;;;;;;;;;;;;;6.08;43.58;99407.13;4280770;33;19998;-90
2021/12/28 00:38:26;;;;;;;;;;;;;;;5.89;43.94;99401.44;4280085;33;19984;-91
2021/12/28 00:40:54;;;;;;;;;;;;;;;6.00;44.77;99405.22;4274258;33;19995;-91
2021/12/28 00:43:21;;;;;;;;;;;;;;;6.03;44.78;99415.59;4266352;33;20016;-90
2021/12/28 00:45:48;;;;;;;;;;;;;;;5.89;44.88;99406.56;4275113;33;20478;-91
2021/12/28 00:48:16;;;;;;;;;;;;;;;5.92;45.03;99401.53;4271874;33;20387;-92
2021/12/28 00:50:44;;;;;;;;;;;;;;;6.10;44.36;99406.34;4265803;33;19989;-88
2021/12/28 00:53:11;;;;;;;;;;;;;;;5.99;44.89;99408.59;4266363;33;19992;-91
2021/12/28 00:55:38;;;;;;;;;;;;;;;5.71;46.56;99412.09;4277730;33;19976;-89
2021/12/28 00:58:05;;;;;;;;;;;;;;;6.07;46.02;99415.66;4266194;33;19992;-90
2021/12/28 01:00:33;;;;;;;;;;;;;;;5.94;46.66;99415.31;4253688;33;20103;-90
2021/12/28 01:03:01;;;;;;;;;;;;;;;5.92;46.36;99409.22;4277458;33;20048;-91
2021/12/28 01:05:29;;;;;;;;;;;;;;;5.96;47.03;99408.50;4265516;33;20059;-91
2021/12/28 01:07:56;;;;;;;;;;;;;;;5.83;47.39;99401.25;4267048;33;20040;-91
2021/12/28 01:10:24;;;;;;;;;;;;;;;5.78;47.30;99403.72;4251426;33;19992;-89
2021/12/28 01:12:52;;;;;;;;;;;;;;;5.83;47.83;99406.41;4281604;33;20010;-91
2021/12/28 01:15:20;;;;;;;;;;;;;;;5.76;48.25;99399.34;4268128;33;20003;-92
2021/12/28 01:17:48;;;;;;;;;;;;;;;5.81;48.06;99398.66;4280517;33;19995;-91
2021/12/28 01:20:15;;;;;;;;;;;;;;;5.46;48.38;99394.22;4268015;33;20069;-90
2021/12/28 01:22:42;;;;;;;;;;;;;;;5.89;47.57;99385.16;4268148;33;20007;-91
2021/12/28 01:25:10;;;;;;;;;;;;;;;6.05;47.01;99377.94;4267557;33;20028;-92
2021/12/28 01:27:37;;;;;;;;;;;;;;;6.00;47.09;99384.66;4254085;33;20051;-89
2021/12/28 01:30:05;;;;;;;;;;;;;;;5.87;47.82;99377.44;4253735;33;20325;-92
2021/12/28 01:32:32;;;;;;;;;;;;;;;5.93;47.99;99374.16;4269484;33;19999;-92
2021/12/28 01:34:58;;;;;;;;;;;;;;;6.13;47.43;99377.28;4267478;33;19980;-90
2021/12/28 01:37:27;;;;;;;;;;;;;;;6.04;47.68;99381.34;4281205;33;20331;-92
2021/12/28 01:39:54;;;;;;;;;;;;;;;6.00;48.15;99374.38;4269616;33;20354;-93
2021/12/28 01:42:21;;;;;;;;;;;;;;;5.96;48.23;99369.97;4268205;33;20732;-88
2021/12/28 01:44:48;;;;;;;;;;;;;;;5.83;48.94;99375.56;4280069;33;19977;-91
2021/12/28 01:47:16;;;;;;;;;;;;;;;5.82;49.13;99373.84;4281008;33;20019;-92
2021/12/28 01:49:44;;;;;;;;;;;;;;;5.84;49.07;99372.22;4280215;33;20044;-91
2021/12/28 01:52:11;;;;;;;;;;;;;;;6.00;48.46;99371.81;4280999;33;20070;-92
2021/12/28 01:54:38;;;;;;;;;;;;;;;5.92;48.97;99368.13;4279731;33;20002;-90
2021/12/28 01:57:05;;;;;;;;;;;;;;;6.10;48.65;99365.22;4280822;33;19980;-91
2021/12/28 01:59:32;;;;;;;;;;;;;;;6.10;48.52;99364.34;4280346;33;19984;-90
2021/12/28 02:01:59;;;;;;;;;;;;;;;5.95;48.93;99365.69;4281441;33;19992;-93
2021/12/28 02:04:28;;;;;;;;;;;;;;;5.92;49.19;99370.69;4277943;33;19984;-91
2021/12/28 02:06:57;;;;;;;;;;;;;;;5.94;49.62;99369.09;4281021;33;19992;-92
2021/12/28 02:09:24;;;;;;;;;;;;;;;5.92;49.87;99364.69;4281302;33;20026;-92
2021/12/28 02:11:52;;;;;;;;;;;;;;;6.04;49.49;99352.22;4260382;33;19988;-92
2021/12/28 02:14:20;;;;;;;;;;;;;;;5.71;50.45;99344.41;4278187;33;20323;-91
2021/12/28 02:16:47;;;;;;;;;;;;;;;5.67;50.81;99342.59;4279906;33;19976;-90
2021/12/28 02:19:14;;;;;;;;;;;;;;;5.70;50.76;99332.41;4279744;33;20339;-89
2021/12/28 02:21:42;;;;;;;;;;;;;;;5.60;51.13;99337.31;4251170;33;20052;-90
2021/12/28 02:24:09;;;;;;;;;;;;;;;5.79;50.61;99332.69;4277739;33;19985;-90
2021/12/28 02:26:36;;;;;;;;;;;;;;;5.62;50.85;99333.94;4277459;33;20003;-88
2021/12/28 02:29:03;;;;;;;;;;;;;;;5.49;51.33;99343.84;4277528;33;20006;-89
2021/12/28 02:31:30;;;;;;;;;;;;;;;5.49;51.33;99337.84;4248931;33;20015;-88
2021/12/28 02:33:57;;;;;;;;;;;;;;;5.55;51.23;99349.16;4266972;33;19999;-92
2021/12/28 02:36:26;;;;;;;;;;;;;;;5.57;51.27;99347.47;4277183;33;20040;-92
2021/12/28 02:38:53;;;;;;;;;;;;;;;5.40;51.89;99343.59;4276709;33;20307;-91
2021/12/28 02:41:20;;;;;;;;;;;;;;;5.40;51.88;99343.59;4266667;33;20040;-92
2021/12/28 02:43:48;;;;;;;39.50;21.87;;;;;;;5.56;51.45;99340.63;4276528;33;20277;-91
2021/12/28 02:46:16;;;;;;;41.47;27.90;;;;;;;5.13;52.75;99344.50;4251188;33;20246;-91
2021/12/28 02:48:44;;;;;;;40.92;29.35;;;;;;;4.69;54.41;99339.72;4263896;33;20359;-89
2021/12/28 02:51:14;;;;;;;46.03;29.30;;;;;;;4.61;54.89;99337.78;4264382;33;20315;-91
2021/12/28 02:53:42;;;;;;;44.33;31.27;;;;;;;4.46;55.50;99346.69;4237539;33;20408;-91
2021/12/28 02:56:11;;;;;;;41.97;28.80;;;;;;;4.56;54.80;99344.47;3678531;33;20003826;-89
2021/12/28 02:58:41;;;;;;;41.33;30.42;;;;;;;4.41;55.27;99344.84;4272185;33;20324;-90
2021/12/28 03:01:14;;;;;;;44.92;29.42;;;;;;;4.90;53.77;99342.94;4278275;33;20334;-89
2021/12/28 03:03:43;;;;;;;42.38;29.35;;;;;;;5.06;53.26;99341.72;4278598;33;20662;-88
2021/12/28 03:06:14;;;;;;;44.77;31.40;;;;;;;4.72;54.31;99337.25;4263991;33;20382;-91
2021/12/28 03:08:48;;;;;;;46.22;29.95;;;;;;;4.73;54.22;99337.31;4264453;33;20367;-89
2021/12/28 03:11:16;;;;;;;48.85;30.42;;;;;;;4.80;53.94;99340.94;4264386;33;31140;-88
2021/12/28 03:13:47;;;;;;;46.85;30.62;;;;;;;4.91;53.46;99334.44;4270884;33;20315;-90
2021/12/28 03:16:14;;;;;;;45.35;33.10;;;;;;;4.50;54.75;99328.91;4254128;33;20373;-89
2021/12/28 03:18:42;;;;;;;46.35;31.37;;;;;;;4.49;54.95;99331.41;4264728;33;20396;-89
2021/12/28 03:21:11;;;;;;;44.92;31.15;;;;;;;4.49;54.94;99327.16;4262820;33;20688;-89
2021/12/28 03:23:39;;;;;;;45.80;31.20;;;;;;;4.71;54.63;99328.69;4265088;33;20319;-90
2021/12/28 03:26:07;;;;;;;48.78;31.20;;;;;;;4.62;55.16;99336.97;4251580;33;20805;-89
2021/12/28 03:28:39;;;;;;;49.95;31.12;;;;;;;4.42;55.93;99345.72;4267279;33;20747;-89
2021/12/28 03:31:08;;;;;;;50.85;31.25;;;;;;;4.17;57.05;99344.91;4265821;33;20326;-90
2021/12/28 03:33:38;;;;;;;47.77;31.87;;;;;;;4.26;56.85;99343.47;4278322;33;20385;-91
2021/12/28 03:36:07;;;;;;;52.80;31.55;;;;;;;4.31;56.51;99341.94;4151587;33;5092597;-91
2021/12/28 03:38:36;;;;;;;48.13;31.80;;;;;;;4.33;56.45;99340.28;4277434;33;20357;-90
2021/12/28 03:41:07;;;;;;;49.03;31.77;;;;;;;4.88;54.63;99339.47;4265402;33;20791;-90
2021/12/28 03:43:36;;;;;;;49.15;31.73;;;;;;;4.36;56.10;99338.69;4259035;33;20367;-89
2021/12/28 03:46:04;;;;;;;49.38;33.13;;;;;;;4.09;56.67;99346.34;4266070;33;20728;-89
2021/12/28 03:48:32;;;;;;;46.15;31.40;;;;;;;4.19;56.62;99342.41;4274689;33;20397;-89
2021/12/28 03:51:00;;;;;;;47.03;31.75;;;;;;;4.61;55.26;99330.09;4278381;33;20393;-90
2021/12/28 03:53:27;;;;;;;51.25;33.63;;;;;;;4.19;56.29;99343.25;4266120;33;20339;-89
2021/12/28 03:55:54;;;;;;;54.20;34.33;;;;;;;4.23;56.73;99348.50;4278455;33;20311;-90
2021/12/28 03:58:22;;;;;;;54.50;35.40;;;;;;;4.26;56.72;99358.84;4261091;33;20297;-89
2021/12/28 04:00:49;;;;;;;55.20;34.58;;;;;;;4.02;57.42;99351.19;4277860;33;20793;-89
2021/12/28 04:03:17;;;;;;;58.17;37.37;;;;;;;4.15;57.48;99350.81;4265075;33;20379;-89
2021/12/28 04:05:48;;;;;;;55.00;36.80;;;;;;;3.62;58.91;99353.25;4265631;33;20293;-91
2021/12/28 04:08:22;;;;;;;55.55;36.60;;;;;;;4.36;56.77;99355.75;4278181;33;20315;-90
2021/12/28 04:11:13;;;;;;;55.83;37.55;;;;;;;4.12;57.44;99355.81;4265622;33;31115;-91
2021/12/28 04:13:41;;;;;;;67.53;40.97;;;;;;;4.26;56.97;99349.47;4278522;33;20281;-89
2021/12/28 04:16:09;;;;;;;69.70;40.72;;;;;;;4.46;56.52;99342.41;4277925;33;20644;-88
2021/12/28 04:18:36;;;;;;;63.97;41.30;;;;;;;4.53;56.61;99349.50;4278532;33;20348;-89
2021/12/28 04:21:03;;;;;;;71.60;42.88;;;;;;;4.49;56.76;99345.09;4279609;33;20341;-89
2021/12/28 04:23:30;;;;;;;77.85;44.38;;;;;;;5.07;55.29;99343.44;4278049;33;20774;-89
2021/12/28 04:25:57;;;;;;;79.00;46.45;;;;;;;4.87;55.58;99346.28;4264962;33;20338;-90
2021/12/28 04:28:24;;;;;;;84.87;50.70;;;;;;;4.36;57.57;99348.06;4275916;33;20359;-90
2021/12/28 04:30:52;;;;;;;86.25;48.35;;;;;;;3.94;59.18;99350.94;4278403;33;20343;-91
2021/12/28 04:33:19;;;;;;;91.00;52.80;;;;;;;4.09;58.95;99351.47;4278060;33;20311;-91
2021/12/28 04:35:46;;;;;;;94.65;49.70;;;;;;;3.98;59.61;99352.78;4278448;33;20289;-89
2021/12/28 04:38:14;;;;;;;84.85;49.47;;;;;;;4.13;59.27;99358.44;4256979;33;20361;-91
2021/12/28 04:40:41;;;;;;;81.15;47.55;;;;;;;4.10;59.83;99352.34;4275124;33;20281;-90
2021/12/28 04:43:08;;;;;;;76.07;42.30;;;;;;;3.96;60.72;99351.88;4265096;33;20315;-89
2021/12/28 04:45:37;;;;;;;74.07;39.55;;;;;;;4.04;61.05;99350.44;4277699;33;20315;-89
2021/12/28 04:48:05;;;;;;;72.97;38.13;;;;;;;3.92;61.68;99347.44;4275463;33;20322;-89
2021/12/28 04:50:38;;;;;;;69.07;39.33;;;;;;;3.69;62.59;99339.84;4256979;33;20356;-88
2021/12/28 04:53:09;;;;;;;66.35;37.28;;;;;;;4.26;60.38;99338.34;4262445;33;31092;-91
2021/12/28 04:55:44;;;;;;;54.88;30.77;;;;;;;3.97;61.83;99345.91;4251037;33;20388;-90
2021/12/28 04:58:12;;;;;;;56.55;32.60;;;;;;;4.36;60.36;99342.94;4269350;33;31092;-89
2021/12/28 05:00:40;;;;;;;58.83;36.07;;;;;;;4.47;59.81;99344.19;4276302;33;20299;-90
2021/12/28 05:03:08;;;;;;;59.63;34.80;;;;;;;3.89;61.85;99339.66;4261843;33;20364;-91
2021/12/28 05:05:36;;;;;;;50.67;29.13;;;;;;;4.01;61.84;99332.41;4270188;33;20405;-91
2021/12/28 05:08:04;;;;;;;47.90;28.50;;;;;;;4.47;60.08;99344.19;4264954;33;20319;-91
2021/12/28 05:10:32;;;;;;;55.15;30.00;;;;;;;4.09;61.40;99330.97;4277396;33;20308;-89
2021/12/28 05:13:00;;;;;;;51.80;30.47;;;;;;;3.86;62.40;99342.09;4278505;33;20747;-88
2021/12/28 05:15:27;;;;;;;50.90;30.20;;;;;;;4.01;61.96;99342.62;4280677;33;20328;-89
2021/12/28 05:17:55;;;;;;;53.38;30.90;;;;;;;4.36;60.74;99340.38;4266659;33;20293;-88
2021/12/28 05:20:22;;;;;;;51.65;29.23;;;;;;;3.97;61.97;99343.38;4280607;33;20325;-88
2021/12/28 05:22:49;;;;;;;50.92;29.58;;;;;;;3.99;62.19;99344.28;4255130;33;20312;-89
2021/12/28 05:25:16;;;;;;;44.63;27.37;;;;;;;4.02;62.07;99349.53;4262758;33;20297;-88
2021/12/28 05:27:43;;;;;;;41.10;25.05;;;;;;;4.36;60.89;99338.69;4254091;33;20704;-88
2021/12/28 05:30:11;;;;;;;38.17;23.83;;;;;;;4.02;61.88;99346.97;4263759;33;20162;-88
2021/12/28 05:32:38;;;;;;;40.35;24.12;;;;;;;4.37;60.87;99347.25;4252307;33;20314;-88
2021/12/28 05:35:07;;;;;;;35.90;22.70;;;;;;;4.31;60.91;99350.50;4264226;33;20491;-89
2021/12/28 05:37:34;;;;;;;33.75;21.08;;;;;;;3.97;62.21;99366.41;4254623;33;20295;-89
2021/12/28 05:40:02;;;;;;;35.15;21.67;;;;;;;4.06;62.08;99361.59;4261506;33;20289;-91
2021/12/28 05:42:30;;;;;;;31.30;19.97;;;;;;;4.07;61.98;99363.34;4274020;33;20895;-90
2021/12/28 05:44:57;;;;;;;31.45;19.52;;;;;;;4.40;60.69;99361.06;4280009;33;20281;-89
2021/12/28 05:47:24;;;;;;;27.37;18.65;;;;;;;4.36;60.70;99366.00;4279335;33;20729;-89
2021/12/28 05:49:52;;;;;;;27.87;18.65;;;;;;;4.13;61.62;99355.00;4278581;33;20316;-91
2021/12/28 05:52:19;;;;;;;32.33;19.85;;;;;;;4.00;61.81;99366.50;4279812;33;20242;-90
2021/12/28 05:54:46;;;;;;;28.45;18.85;;;;;;;4.27;61.03;99363.13;4279731;33;20220;-89
2021/12/28 05:57:13;;;;;;;33.38;20.12;;;;;;;4.02;62.06;99370.00;4265935;33;20208;-88
2021/12/28 05:59:40;;;;;;;28.50;18.93;;;;;;;3.89;62.78;99372.94;4280112;33;20285;-90
2021/12/28 06:02:09;;;;;;;28.23;18.50;;;;;;;4.00;62.19;99366.50;4252406;33;21170;-90
2021/12/28 06:04:36;;;;;;;27.58;18.15;;;;;;;4.45;60.80;99362.88;4279597;33;20572;-90
2021/12/28 06:07:03;;;;;;;28.53;16.93;;;;;;;4.33;61.18;99365.91;4279780;33;20474;-90
2021/12/28 06:09:31;;;;;;;24.33;16.83;;;;;;;4.38;60.80;99372.06;4262865;33;20305;-90
2021/12/28 06:11:58;;;;;;;31.52;17.37;;;;;;;4.31;61.04;99372.69;4279809;33;20170;-92
2021/12/28 06:14:25;;;;;;;27.15;16.80;;;;;;;4.34;60.97;99388.12;4279724;33;20285;-89
2021/12/28 06:16:54;;;;;;;27.85;17.65;;;;;;;4.35;61.02;99395.03;4279475;33;20161;-90
2021/12/28 06:19:22;;;;;;;27.67;18.10;;;;;;;4.45;60.64;99380.81;4266316;33;20311;-89
2021/12/28 06:21:49;;;;;;;25.90;18.40;;;;;;;4.51;60.50;99376.78;4279466;33;20169;-89
2021/12/28 06:24:16;;;;;;;27.33;18.20;;;;;;;4.29;61.58;99384.56;4265910;33;20185;-88
2021/12/28 06:26:44;;;;;;;24.93;17.43;;;;;;;4.51;60.38;99371.62;4274960;33;20187;-89
2021/12/28 06:29:11;;;;;;;28.00;17.70;;;;;;;4.14;61.67;99377.22;4251160;33;20294;-87
2021/12/28 06:31:38;;;;;;;30.08;18.60;;;;;;;4.15;61.77;99377.28;4265258;33;20404;-88
2021/12/28 06:34:07;;;;;;;28.77;18.55;;;;;;;3.95;62.47;99380.84;4268091;33;20157;-86
2021/12/28 06:36:34;;;;;;;26.87;18.17;;;;;;;4.06;62.07;99376.97;4265586;33;20187;-88
2021/12/28 06:39:01;;;;;;;29.33;17.50;;;;;;;4.37;61.27;99373.75;4279078;33;20324;-87
2021/12/28 06:41:28;;;;;;;28.38;18.23;;;;;;;4.65;59.86;99378.06;4264456;33;20340;-89
2021/12/28 06:43:59;;;;;;;29.80;18.52;;;;;;;4.73;59.80;99382.59;4257422;33;20165;-90
2021/12/28 06:46:26;;;;;;;29.10;19.00;;;;;;;4.45;61.04;99386.81;4279103;33;20562;-89
2021/12/28 06:48:54;;;;;;;28.42;19.70;;;;;;;4.49;60.69;99387.78;4264338;33;20276;-90
2021/12/28 06:51:20;;;;;;;27.57;18.90;;;;;;;4.53;60.39;99385.38;4262148;33;20188;-86
2021/12/28 06:53:50;;;;;;;33.17;19.92;;;;;;;4.32;61.17;99382.09;4266406;33;20197;-87
2021/12/28 06:56:18;;;;;;;29.33;20.10;;;;;;;4.40;61.02;99388.34;4253927;33;20523;-86
2021/12/28 06:58:44;;;;;;;28.25;19.70;;;;;;;4.45;60.77;99386.81;4278405;33;21052;-87
2021/12/28 07:01:11;;;;;;;33.05;18.95;;;;;;;4.47;60.95;99390.31;4278787;33;20297;-84
2021/12/28 07:03:39;;;;;;;33.58;20.02;;;;;;;4.57;60.77;99394.91;4253180;33;20349;-79
2021/12/28 07:06:10;;;;;;;30.77;19.67;;;;;;;4.06;62.28;99402.59;4272598;33;20344;-80
2021/12/28 07:08:37;;;;;;;28.35;19.05;;;;;;;3.92;63.15;99403.78;4260789;33;20277;-81
2021/12/28 07:11:05;;;;;;;29.27;19.27;;;;;;;3.73;63.60;99408.25;4274913;33;20349;-82
2021/12/28 07:13:32;;;;;;;28.40;19.17;;;;;;;3.42;64.83;99410.50;4261981;33;20398;-80
2021/12/28 07:15:59;;;;;;;30.45;18.37;;;;;;;3.62;64.41;99417.22;4255563;33;20308;-82
2021/12/28 07:18:27;;;;;;;30.40;19.70;;;;;;;3.86;63.67;99429.16;4255896;33;20289;-81
2021/12/28 07:20:54;;;;;;;36.17;20.70;;;;;;;3.99;62.86;99423.69;4253874;33;20324;-85
2021/12/28 07:23:21;;;;;;;35.65;20.77;;;;;;;3.45;64.51;99415.72;4255018;33;20313;-85
2021/12/28 07:25:53;;;;;;;29.87;19.58;;;;;;;3.71;63.62;99420.13;4246390;33;20290;-85
2021/12/28 07:28:21;;;;;;;32.15;20.37;;;;;;;4.23;62.15;99420.22;4248347;33;20334;-85
2021/12/28 07:30:49;;;;;;;31.45;21.02;;;;;;;4.27;62.20;99416.94;4246430;33;20316;-84
2021/12/28 07:33:16;;;;;;;38.15;19.83;;;;;;;4.24;62.21;99416.81;4234525;33;20293;-84
2021/12/28 07:35:43;;;;;;;30.33;20.15;;;;;;;4.06;62.79;99417.94;4259630;33;20348;-84
2021/12/28 07:38:10;;;;;;;31.50;20.03;;;;;;;3.64;64.28;99423.28;4260345;33;20280;-84
2021/12/28 07:40:38;;;;;;;32.17;20.85;;;;;;;4.40;61.85;99424.22;4271284;33;20311;-84
2021/12/28 07:43:05;;;;;;;27.05;18.77;;;;;;;3.64;64.29;99423.28;4235957;33;20629;-83
2021/12/28 07:45:33;;;;;;;29.90;19.17;;;;;;;4.21;62.22;99422.72;4273555;33;20228;-84
2021/12/28 07:48:01;;;;;;;30.55;19.55;;;;;;;3.99;63.15;99431.38;4256339;33;20318;-81
2021/12/28 07:50:28;;;;;;;32.97;20.12;;;;;;;3.71;64.20;99430.34;4275274;33;20304;-80
2021/12/28 07:52:58;;;;;;;29.30;20.02;;;;;;;3.45;65.31;99425.97;4258881;33;20401;-85
2021/12/28 07:55:25;;;;;;;33.20;20.87;;;;;;;3.82;64.01;99427.31;4272495;33;20317;-85
2021/12/28 07:57:52;;;;;;;32.03;21.10;;;;;;;3.79;64.09;99432.31;4258252;33;21082;-87
2021/12/28 08:00:19;;;;;;;34.75;21.10;;;;;;;3.88;63.94;99427.53;4268242;33;20367;-86
2021/12/28 08:02:47;;;;;;;36.33;22.23;;;;;;;4.53;61.48;99426.41;4249241;33;20425;-86
2021/12/28 08:05:15;;;;;;;39.30;22.15;;;;;;;4.63;61.25;99428.44;4256684;33;20575;-84
2021/12/28 08:07:43;;;;;;;36.22;23.58;;;;;;;4.20;62.17;99429.53;4275350;33;20387;-84
2021/12/28 08:10:12;;;;;;;39.45;25.85;;;;;;;4.49;61.73;99424.53;4262703;33;20319;-84
2021/12/28 08:12:40;;;;;;;41.60;26.80;;;;;;;4.40;62.35;99424.22;4260753;33;20191;-81
2021/12/28 08:15:07;;;;;;;41.47;25.35;;;;;;;4.45;62.06;99417.56;4261040;33;21169;-81
2021/12/28 08:17:36;;;;;;;44.20;26.42;;;;;;;4.46;61.85;99421.87;4257435;33;20286;-81
2021/12/28 08:20:09;;;;;;;42.60;27.55;;;;;;;4.78;60.83;99416.91;4260095;33;20332;-81
2021/12/28 08:22:39;;;;;;;44.30;28.35;;;;;;;4.27;62.75;99411.81;4254613;33;20356;-81
2021/12/28 08:25:08;;;;;;;41.45;25.35;;;;;;;4.34;62.67;99413.75;4249367;33;20288;-79
2021/12/28 08:27:36;;;;;;;41.00;25.83;;;;;;;4.20;63.06;99411.59;4257195;33;20287;-80
2021/12/28 08:30:04;;;;;;;36.50;23.62;;;;;;;4.28;62.54;99413.56;4241033;33;20294;-81
2021/12/28 08:32:31;;;;;;;36.40;22.77;;;;;;;4.62;61.28;99403.59;4259445;33;20343;-79
2021/12/28 08:34:58;;;;;;;40.17;23.12;;;;;;;4.45;62.01;99412.44;4257777;33;20315;-78
2021/12/28 08:37:27;;;;;;;38.55;23.27;;;;;;;4.27;62.44;99411.81;4269840;33;20337;-78
2021/12/28 08:39:55;;;;;;;36.00;23.55;;;;;;;4.08;63.41;99420.53;4272600;33;20319;-78
2021/12/28 08:42:22;;;;;;;36.97;23.75;;;;;;;3.90;64.26;99415.66;4239107;33;20288;-78
2021/12/28 08:44:50;;;;;;;40.08;23.77;;;;;;;3.90;64.43;99425.91;4257172;33;20346;-80
2021/12/28 08:47:18;;;;;;;41.28;24.52;;;;;;;3.82;64.77;99435.00;4271959;33;20352;-80
2021/12/28 08:49:45;;;;;;;40.93;25.07;;;;;;;4.26;62.86;99435.69;4247604;33;20315;-80
2021/12/28 08:52:12;;;;;;;39.50;24.95;;;;;;;4.38;62.68;99433.56;4247295;33;814163;-80
2021/12/28 08:54:39;;;;;;;43.93;27.33;;;;;;;3.70;64.68;99438.84;4251361;33;20418;-81
2021/12/28 08:57:06;;;;;;;39.97;26.30;;;;;;;4.05;63.83;99439.25;4274286;33;20281;-81
2021/12/28 08:59:33;;;;;;;38.53;24.47;;;;;;;3.95;64.22;99435.47;4261300;33;20307;-80
2021/12/28 09:02:01;;;;;;;39.22;24.08;;;;;;;4.44;62.03;99426.09;4260833;33;20290;-80
2021/12/28 09:04:28;;;;;;;36.17;23.27;;;;;;;4.39;62.59;99427.59;4247180;33;20314;-81
2021/12/28 09:06:55;;;;;;;36.20;24.50;;;;;;;4.08;63.50;99426.53;4256257;33;20287;-79
2021/12/28 09:09:24;;;;;;;37.75;24.15;;;;;;;4.66;61.62;99423.41;4261214;33;21195;-80
2021/12/28 09:11:53;;;;;;;37.70;24.00;;;;;;;4.54;62.03;99412.75;4257441;33;20615;-81
2021/12/28 09:14:20;;;;;;;40.85;25.23;;;;;;;4.35;62.68;99405.28;4272810;33;20451;-81
2021/12/28 09:16:47;;;;;;;37.55;24.23;;;;;;;4.40;62.47;99403.72;4258666;33;20948;-82
2021/12/28 09:19:14;;;;;;;38.10;24.85;;;;;;;4.10;63.55;99408.69;4271872;33;20361;-82
2021/12/28 09:21:42;;;;;;;36.42;24.05;;;;;;;4.20;62.73;99410.72;4259791;33;20324;-81
2021/12/28 09:24:09;;;;;;;42.25;25.80;;;;;;;4.23;63.02;99400.59;4274765;33;20315;-83
2021/12/28 09:26:56;;;;;;;39.47;24.52;;;;;;;3.95;64.14;99402.19;4274613;33;20269;-81
2021/12/28 09:29:29;;;;;;;39.10;25.75;;;;;;;4.31;63.17;99401.75;4273050;33;20312;-81
2021/12/28 09:31:57;;;;;;;38.67;24.58;;;;;;;4.35;63.03;99411.25;4251239;33;20291;-81
2021/12/28 09:34:24;;;;;;;39.72;25.50;;;;;;;4.22;63.16;99413.38;4254766;33;20355;-82
2021/12/28 09:36:57;;;;;;;35.05;24.27;;;;;;;3.86;64.52;99408.66;4277201;33;20282;-81
2021/12/28 09:39:26;;;;;;;35.05;23.27;;;;;;;4.20;63.28;99406.47;4261234;33;20313;-79
2021/12/28 09:41:56;;;;;;;34.13;24.23;;;;;;;4.35;62.97;99408.69;4264463;33;20687;-81
2021/12/28 09:44:23;;;;;;;36.90;25.37;;;;;;;4.16;63.85;99404.63;4260370;33;20339;-80
2021/12/28 09:46:50;;;;;;;37.17;24.33;;;;;;;4.36;62.70;99409.56;4263097;33;20360;-81
2021/12/28 09:49:17;;;;;;;37.30;25.12;;;;;;;4.27;63.12;99406.69;4261289;33;20541;-85
2021/12/28 09:51:45;;;;;;;36.38;23.15;;;;;;;4.30;63.19;99401.66;4261817;33;20311;-83
2021/12/28 09:54:12;;;;;;;36.03;23.02;;;;;;;4.40;62.77;99399.50;4235955;33;20252;-85
2021/12/28 09:56:38;;;;;;;37.88;25.17;;;;;;;3.82;64.58;99404.28;4258913;33;20720;-84
2021/12/28 09:59:06;;;;;;;34.53;22.60;;;;;;;4.03;64.15;99411.84;4270325;33;20293;-84
2021/12/28 10:01:34;;;;;;;33.45;23.35;;;;;;;3.84;64.61;99407.75;4262441;33;20290;-85
2021/12/28 10:04:01;;;;;;;32.53;22.90;;;;;;;3.75;65.31;99410.00;4256043;33;20433;-83
2021/12/28 10:06:29;;;;;;;32.33;22.08;;;;;;;4.13;64.06;99403.66;4260092;33;20396;-85
2021/12/28 10:09:22;;;;;;;32.95;22.27;;;;;;;4.08;64.50;99403.47;4274084;33;21109;-87
2021/12/28 10:11:53;;;;;;;31.58;22.10;;;;;;;4.15;63.96;99402.91;4264124;33;20307;-86
2021/12/28 10:14:26;;;;;;;31.60;21.73;;;;;;;3.48;65.72;99410.72;4264029;33;20327;-86
2021/12/28 10:16:54;;;;;;;30.98;20.85;;;;;;;3.64;65.52;99413.03;4270134;33;20281;-89
2021/12/28 10:19:47;;;;;;;32.95;22.90;;;;;;;4.24;63.98;99396.34;4257373;33;20297;-86
2021/12/28 10:22:43;;;;;;;29.92;21.15;;;;;;;4.20;64.06;99391.09;4242543;33;20320;-85
2021/12/28 10:25:12;;;;;;;27.02;18.42;;;;;;;4.12;64.46;99392.56;4273035;33;20345;-87
2021/12/28 10:27:41;;;;;;;27.07;18.60;;;;;;;3.99;64.07;99395.50;4276270;33;20314;-85
2021/12/28 10:30:18;;;;;;;23.80;16.97;;;;;;;3.39;66.40;99390.78;4262690;33;20331;-84
2021/12/28 10:32:47;;;;;;;24.12;16.77;;;;;;;3.14;66.74;99388.97;4259694;33;20387;-84
2021/12/28 10:35:21;;;;;;;24.87;17.77;;;;;;;4.00;64.31;99376.75;4261298;33;20300;-85
2021/12/28 10:37:54;;;;;;;26.12;17.65;;;;;;;3.85;65.06;99373.66;4261270;33;20281;-83
2021/12/28 10:40:28;;;;;;;23.55;17.62;;;;;;;3.88;65.26;99371.19;4262749;33;20384;-83
2021/12/28 10:43:00;;;;;;;24.27;17.23;;;;;;;4.14;64.44;99375.53;4252864;33;20309;-83
2021/12/28 10:45:37;;;;;;;24.97;17.13;;;;;;;3.91;64.93;99382.41;4253523;33;20298;-82
2021/12/28 10:48:14;;;;;;;24.70;17.98;;;;;;;4.06;64.71;99370.97;4251617;33;21040;-82
2021/12/28 10:50:45;;;;;;;25.95;19.60;;;;;;;4.06;64.24;99376.97;4257570;33;20642;-82
2021/12/28 10:53:24;;;;;;;26.10;18.65;;;;;;;4.33;63.72;99371.91;4262940;33;20304;-86
2021/12/28 10:55:56;;;;;;;27.20;18.83;;;;;;;4.36;63.58;99360.87;4250583;33;20634;-85
2021/12/28 10:58:39;;;;;;;28.37;19.70;;;;;;;4.22;64.28;99362.13;4237391;33;20330;-87
2021/12/28 11:01:16;;;;;;;26.62;19.00;;;;;;;4.34;63.97;99357.38;4279290;33;20280;-89
2021/12/28 11:03:48;;;;;;;25.12;19.02;;;;;;;4.72;62.31;99350.94;4271313;33;20348;-89
2021/12/28 11:06:26;;;;;;;27.15;20.55;;;;;;;4.52;62.71;99347.75;4246995;33;21140;-88
2021/12/28 11:08:59;;;;;;;23.92;17.62;;;;;;;4.30;63.86;99356.41;4274404;33;20276;-86
2021/12/28 11:11:27;;;;;;;24.60;17.27;;;;;;;4.37;63.29;99363.50;4273036;33;20311;-82
2021/12/28 11:14:11;;;;;;;22.67;15.90;;;;;;;4.31;63.39;99359.88;4249158;33;21209;-83
2021/12/28 11:16:39;;;;;;;27.37;18.15;;;;;;;4.34;63.14;99357.38;4273307;33;20311;-85
2021/12/28 11:19:09;;;;;;;26.80;18.83;;;;;;;3.90;65.26;99359.34;4258183;33;20197;-87
2021/12/28 11:21:40;;;;;;;32.25;20.10;;;;;;;3.95;64.84;99347.53;4259978;33;21224;-83
2021/12/28 11:24:13;;;;;;;25.77;18.40;;;;;;;4.30;64.42;99347.88;4274522;33;20289;-84
2021/12/28 11:26:43;;;;;;;27.37;19.85;;;;;;;4.11;65.10;99339.56;4257856;33;20189;-84
2021/12/28 11:29:19;;;;;;;30.42;19.80;;;;;;;4.26;64.75;99338.34;4261925;33;20277;-83
2021/12/28 11:31:50;;;;;;;27.08;19.62;;;;;;;4.61;63.50;99330.09;4260530;33;20240;-87
2021/12/28 11:34:30;;;;;;;26.15;18.65;;;;;;;4.82;63.03;99327.34;4260533;33;20353;-86
2021/12/28 11:37:00;;;;;;;26.37;18.33;;;;;;;4.85;62.48;99326.53;4270607;33;20354;-83
2021/12/28 11:39:34;;;;;;;31.02;22.87;;;;;;;4.50;63.35;99328.00;4278062;33;20280;-86
2021/12/28 11:42:02;;;;;;;24.90;17.33;;;;;;;4.79;62.24;99331.50;4274643;33;20185;-83
2021/12/28 11:44:30;;;;;;;22.90;16.60;;;;;;;4.66;62.64;99310.62;4261438;33;21488;-84
2021/12/28 11:46:59;;;;;;;24.83;17.75;;;;;;;4.26;63.87;99310.16;4255887;33;20318;-87
2021/12/28 11:49:28;;;;;;;21.48;15.60;;;;;;;4.46;64.07;99303.97;4257938;33;20228;-84
2021/12/28 11:51:58;;;;;;;22.73;15.93;;;;;;;4.73;62.66;99305.69;4258395;33;20161;-86
2021/12/28 11:54:27;;;;;;;18.77;14.10;;;;;;;4.62;62.99;99298.50;4256110;33;20191;-80